CYNA

Natashquan Airport

ICAO Code CYNA
IATA Code YNA
Name Natashquan Airport
Location Natashquan, Quebec, CA
Elevation 39 Feet / 11.9 Meters
Latitude 50.19000000
Longitude -61.78888889
METAR CYNA 080739Z AUTO 06006KT 9SM OVC007 04/04 A3007 RMK SLP186
Extra information Display Charts and CFS
Display NOTAMS
Runway Length Width Surface Elevation
14 4495 ft 100 ft ASP 35 ft
32 4495 ft 100 ft ASP 39 ft